Time;durP1;ratioP1;P1;durP2;ratioP2;P2;SDS_P1;SDS_P2;PMS_P1;PMS_P2;Temp;Humidity;BMP_temperature;BMP_pressure;BME280_temperature;BME280_humidity;BME280_pressure;Samples;Min_cycle;Max_cycle;Signal;HPM_P1;HPM_P2
2020/12/29 00:02:25;;;;;;;7.47;4.82;;;4.90;99.90;;;;;;5050731;28;20464;-67
2020/12/29 00:04:51;;;;;;;7.18;4.72;;;4.90;99.90;;;;;;5047997;28;20068;-66
2020/12/29 00:07:17;;;;;;;6.63;4.82;;;4.90;99.90;;;;;;5050633;28;21407;-66
2020/12/29 00:09:44;;;;;;;8.07;4.60;;;4.90;99.90;;;;;;5047594;28;20396;-66
2020/12/29 00:12:10;;;;;;;8.38;4.88;;;4.90;99.90;;;;;;5050811;28;20414;-66
2020/12/29 00:14:37;;;;;;;7.95;4.65;;;4.90;99.90;;;;;;5047882;28;20076;-66
2020/12/29 00:17:03;;;;;;;7.78;4.93;;;4.90;99.90;;;;;;5051039;28;20056;-66
2020/12/29 00:19:29;;;;;;;7.68;4.97;;;4.90;99.90;;;;;;5045537;28;20049;-66
2020/12/29 00:21:56;;;;;;;8.15;5.60;;;4.90;99.90;;;;;;5050916;28;20055;-66
2020/12/29 00:24:22;;;;;;;8.15;5.38;;;4.90;99.90;;;;;;5048026;28;20074;-65
2020/12/29 00:27:04;;;;;;;8.73;5.30;;;4.90;99.90;;;;;;5050527;28;20076;-66
2020/12/29 00:29:32;;;;;;;8.30;5.25;;;4.90;99.90;;;;;;5048152;28;20041;-66
2020/12/29 00:32:01;;;;;;;8.07;4.95;;;4.90;99.90;;;;;;5046471;28;20049;-66
2020/12/29 00:34:28;;;;;;;9.57;5.38;;;4.90;99.90;;;;;;5041067;28;20484;-66
2020/12/29 00:36:54;;;;;;;9.07;5.45;;;4.90;99.90;;;;;;5044730;28;20118;-66
2020/12/29 00:39:21;;;;;;;9.27;5.82;;;4.90;99.90;;;;;;5045238;28;20133;-66
2020/12/29 00:41:47;;;;;;;8.27;5.63;;;4.90;99.90;;;;;;5050541;28;20051;-66
2020/12/29 00:44:13;;;;;;;9.75;6.25;;;4.90;99.90;;;;;;5044677;28;20055;-66
2020/12/29 00:46:39;;;;;;;9.93;5.88;;;4.90;99.90;;;;;;5049268;28;20129;-66
2020/12/29 00:49:05;;;;;;;7.75;5.13;;;4.90;99.90;;;;;;5048434;28;20040;-66
2020/12/29 00:51:32;;;;;;;8.35;5.07;;;4.90;99.90;;;;;;5050843;28;20055;-66
2020/12/29 00:53:58;;;;;;;8.05;5.35;;;4.90;99.90;;;;;;5047997;28;20053;-66
2020/12/29 00:56:25;;;;;;;13.90;6.50;;;4.90;99.90;;;;;;5049696;28;20045;-66
2020/12/29 00:58:51;;;;;;;8.05;5.22;;;4.90;99.90;;;;;;5043526;28;20049;-66
2020/12/29 01:01:17;;;;;;;7.88;5.63;;;4.90;99.90;;;;;;5050325;28;20056;-66
2020/12/29 01:03:43;;;;;;;9.93;5.30;;;4.90;99.90;;;;;;5047562;28;20057;-66
2020/12/29 01:06:10;;;;;;;8.20;4.90;;;4.90;99.90;;;;;;5049262;28;20048;-66
2020/12/29 01:08:36;;;;;;;8.73;5.28;;;4.90;99.90;;;;;;5045816;28;20514;-66
2020/12/29 01:11:03;;;;;;;9.10;5.63;;;4.90;99.90;;;;;;5050508;28;20051;-66
2020/12/29 01:13:29;;;;;;;7.82;5.70;;;4.90;99.90;;;;;;5045951;28;20045;-66
2020/12/29 01:15:55;;;;;;;9.63;6.13;;;4.90;99.90;;;;;;5049164;28;20127;-67
2020/12/29 01:18:22;;;;;;;9.85;6.40;;;4.90;99.90;;;;;;5047669;28;20053;-66
2020/12/29 01:20:48;;;;;;;10.60;6.63;;;4.90;99.90;;;;;;5052397;28;20128;-66
2020/12/29 01:23:15;;;;;;;10.15;6.43;;;4.90;99.90;;;;;;5051393;28;20128;-66
2020/12/29 01:25:42;;;;;;;10.65;6.80;;;4.90;99.90;;;;;;5052087;28;20152;-66
2020/12/29 01:28:12;;;;;;;8.85;6.20;;;4.90;99.90;;;;;;5050694;28;20103;-66
2020/12/29 01:30:39;;;;;;;10.32;6.25;;;4.80;99.90;;;;;;5053943;28;20041;-66
2020/12/29 01:33:06;;;;;;;9.50;5.82;;;4.90;99.90;;;;;;5051059;28;20054;-66
2020/12/29 01:35:32;;;;;;;11.55;6.43;;;4.90;99.90;;;;;;5052873;28;20171;-66
2020/12/29 01:37:59;;;;;;;11.00;6.53;;;4.80;99.90;;;;;;5052113;28;20061;-66
2020/12/29 01:40:25;;;;;;;10.20;6.63;;;4.90;99.90;;;;;;5052930;28;20101;-66
2020/12/29 01:42:52;;;;;;;11.27;7.10;;;4.90;99.90;;;;;;5051292;28;20064;-66
2020/12/29 01:45:18;;;;;;;11.23;6.90;;;4.90;99.90;;;;;;5052319;28;20140;-66
2020/12/29 01:47:47;;;;;;;12.10;7.05;;;4.90;99.90;;;;;;5051549;28;20440;-66
2020/12/29 01:50:16;;;;;;;12.05;7.03;;;4.80;99.90;;;;;;5048341;28;20554;-67
2020/12/29 01:52:46;;;;;;;12.35;6.95;;;4.80;99.90;;;;;;5052154;28;20075;-66
2020/12/29 01:55:12;;;;;;;11.35;6.93;;;4.80;99.90;;;;;;5051753;28;20052;-66
2020/12/29 01:57:39;;;;;;;12.30;7.07;;;4.80;99.90;;;;;;5051513;28;20485;-66
2020/12/29 02:00:10;;;;;;;11.95;7.07;;;4.80;99.90;;;;;;5051765;28;20040;-66
2020/12/29 02:02:37;;;;;;;11.60;7.03;;;4.80;99.90;;;;;;5051781;28;20041;-65
2020/12/29 02:05:07;;;;;;;12.30;7.03;;;4.80;99.90;;;;;;5050425;28;20080;-65
2020/12/29 02:07:34;;;;;;;14.02;8.23;;;4.80;99.90;;;;;;5050744;28;20056;-66
2020/12/29 02:10:01;;;;;;;12.75;7.53;;;4.80;99.90;;;;;;5048299;28;20356;-66
2020/12/29 02:12:33;;;;;;;12.77;7.47;;;4.80;99.90;;;;;;5053250;28;20052;-65
2020/12/29 02:15:02;;;;;;;12.93;7.40;;;4.80;99.90;;;;;;5046398;28;20376;-66
2020/12/29 02:17:30;;;;;;;13.15;7.82;;;4.70;99.90;;;;;;5053047;28;20385;-66
2020/12/29 02:19:56;;;;;;;14.00;7.75;;;4.80;99.90;;;;;;5046943;28;20048;-66
2020/12/29 02:22:25;;;;;;;13.40;7.88;;;4.70;99.90;;;;;;5053019;28;20124;-66
2020/12/29 02:24:54;;;;;;;13.35;7.85;;;4.70;99.90;;;;;;5049551;28;20051;-66
2020/12/29 02:27:22;;;;;;;12.98;7.30;;;4.70;99.90;;;;;;5052123;28;20049;-66
2020/12/29 02:29:48;;;;;;;11.68;7.47;;;4.70;99.90;;;;;;5045068;28;20087;-66
2020/12/29 02:32:15;;;;;;;14.00;7.93;;;4.70;99.90;;;;;;5052783;28;20474;-66
2020/12/29 02:34:42;;;;;;;14.90;8.50;;;4.70;99.90;;;;;;5050325;28;20055;-66
2020/12/29 02:37:10;;;;;;;12.50;7.40;;;4.80;99.90;;;;;;5051919;28;20068;-66
2020/12/29 02:39:39;;;;;;;12.60;8.18;;;4.80;99.90;;;;;;5047898;28;20040;-66
2020/12/29 02:42:06;;;;;;;;;;;4.80;99.90;;;;;;5052548;28;20049;-66
2020/12/29 02:44:34;;;;;;;10.75;6.10;;;4.80;99.90;;;;;;5046778;28;19927;-66
2020/12/29 02:47:03;;;;;;;10.63;6.22;;;4.80;99.90;;;;;;5043501;28;20048;-65
2020/12/29 02:49:31;;;;;;;;;;;4.80;99.90;;;;;;5051449;28;20146;-66
2020/12/29 02:51:58;;;;;;;10.97;6.20;;;4.80;99.90;;;;;;5052303;28;19932;-65
2020/12/29 02:54:24;;;;;;;12.32;7.18;;;4.80;99.90;;;;;;5050066;28;20394;-65
2020/12/29 02:56:51;;;;;;;10.90;6.47;;;4.80;99.90;;;;;;5048551;28;20158;-65
2020/12/29 02:59:17;;;;;;;13.75;7.35;;;4.80;99.90;;;;;;5040127;28;20053;-65
2020/12/29 03:01:45;;;;;;;11.75;7.32;;;4.80;99.90;;;;;;5043015;28;20037;-65
2020/12/29 03:04:11;;;;;;;11.50;6.97;;;4.80;99.90;;;;;;5046330;28;20063;-65
2020/12/29 03:06:37;;;;;;;13.30;8.05;;;4.80;99.90;;;;;;5051539;28;20430;-65
2020/12/29 03:09:05;;;;;;;12.50;7.03;;;4.90;99.90;;;;;;5049983;28;20047;-64
2020/12/29 03:11:32;;;;;;;12.52;6.70;;;4.90;99.90;;;;;;5051126;28;20045;-65
2020/12/29 03:14:01;;;;;;;11.18;7.03;;;4.80;99.90;;;;;;5049095;28;20045;-65
2020/12/29 03:16:28;;;;;;;15.00;7.25;;;4.80;99.90;;;;;;5080137;28;20131;-65
2020/12/29 03:18:55;;;;;;;11.45;6.85;;;4.80;99.90;;;;;;5047959;28;20049;-65
2020/12/29 03:21:22;;;;;;;11.63;6.93;;;4.80;99.90;;;;;;5048756;28;20052;-65
2020/12/29 03:23:49;;;;;;;12.93;7.93;;;4.80;99.90;;;;;;5044443;28;20401;-65
2020/12/29 03:26:17;;;;;;;12.00;7.30;;;4.80;99.90;;;;;;5045020;28;20060;-65
2020/12/29 03:28:43;;;;;;;14.27;8.00;;;4.80;99.90;;;;;;5045794;28;20056;-65
2020/12/29 03:31:11;;;;;;;14.73;8.43;;;4.80;99.90;;;;;;5051370;28;20041;-65
2020/12/29 03:33:39;;;;;;;13.25;7.55;;;4.80;99.90;;;;;;5047394;28;20052;-65
2020/12/29 03:36:05;;;;;;;14.02;7.90;;;4.70;99.90;;;;;;5050146;28;20049;-65
2020/12/29 03:38:31;;;;;;;13.57;7.63;;;4.70;99.90;;;;;;5048757;28;20115;-65
2020/12/29 03:40:58;;;;;;;13.00;7.35;;;4.60;99.90;;;;;;5051397;28;20088;-65
2020/12/29 03:43:26;;;;;;;13.50;7.65;;;4.60;99.90;;;;;;5048477;28;20136;-65
2020/12/29 03:45:52;;;;;;;13.70;7.85;;;4.60;99.90;;;;;;5044042;28;20064;-65
2020/12/29 03:48:22;;;;;;;11.40;7.18;;;4.60;99.90;;;;;;5046768;28;20087;-65
2020/12/29 03:50:49;;;;;;;12.93;6.75;;;4.60;99.90;;;;;;5050345;28;20399;-65
2020/12/29 03:53:15;;;;;;;12.93;7.78;;;4.70;99.90;;;;;;5047416;28;20045;-65
2020/12/29 03:55:42;;;;;;;12.38;7.00;;;4.70;99.90;;;;;;5049185;28;20440;-65
2020/12/29 03:58:08;;;;;;;12.77;7.43;;;4.60;99.90;;;;;;5048346;28;20053;-65
2020/12/29 04:00:36;;;;;;;13.55;7.85;;;4.70;99.90;;;;;;5051261;28;20045;-65
2020/12/29 04:03:03;;;;;;;13.23;7.38;;;4.70;99.90;;;;;;5047210;28;20396;-65
2020/12/29 04:05:30;;;;;;;13.90;7.95;;;4.70;99.90;;;;;;5050432;28;20049;-65
2020/12/29 04:08:00;;;;;;;11.45;6.80;;;4.70;99.90;;;;;;5039650;28;20102;-65
2020/12/29 04:10:27;;;;;;;12.63;6.90;;;4.70;99.90;;;;;;5049760;28;20132;-65
2020/12/29 04:12:55;;;;;;;13.05;7.25;;;4.70;99.90;;;;;;5049152;28;20063;-65
2020/12/29 04:15:21;;;;;;;12.73;7.00;;;4.80;99.90;;;;;;5050513;28;20075;-65
2020/12/29 04:17:48;;;;;;;13.13;7.50;;;4.80;99.90;;;;;;5043994;28;20055;-65
2020/12/29 04:20:18;;;;;;;13.13;7.25;;;4.80;99.90;;;;;;5050558;28;20109;-65
2020/12/29 04:22:44;;;;;;;11.77;7.28;;;4.80;99.90;;;;;;5046914;28;20380;-65
2020/12/29 04:25:10;;;;;;;13.02;7.75;;;4.80;99.90;;;;;;5049995;28;20439;-65
2020/12/29 04:27:40;;;;;;;13.48;7.18;;;4.80;99.90;;;;;;5048789;28;20126;-65
2020/12/29 04:30:08;;;;;;;13.77;7.85;;;4.80;99.90;;;;;;5043366;28;20037;-65
2020/12/29 04:32:38;;;;;;;13.00;7.57;;;4.80;99.90;;;;;;5050525;28;20550;-65
2020/12/29 04:35:06;;;;;;;13.55;7.53;;;4.80;99.90;;;;;;5043720;28;20540;-65
2020/12/29 04:37:35;;;;;;;11.90;7.07;;;4.80;99.90;;;;;;5049529;28;20049;-65
2020/12/29 04:40:04;;;;;;;14.75;7.22;;;4.90;99.90;;;;;;5047509;28;20049;-65
2020/12/29 04:42:31;;;;;;;12.40;6.57;;;4.80;99.90;;;;;;5050644;28;20563;-65
2020/12/29 04:44:58;;;;;;;12.90;7.43;;;4.90;99.90;;;;;;5047500;28;20041;-65
2020/12/29 04:47:28;;;;;;;15.25;7.63;;;4.80;99.90;;;;;;5044711;28;20053;-65
2020/12/29 04:49:57;;;;;;;12.30;7.20;;;4.80;99.90;;;;;;5046597;28;20141;-65
2020/12/29 04:52:24;;;;;;;14.18;7.72;;;4.80;99.90;;;;;;5050550;28;20492;-65
2020/12/29 04:54:53;;;;;;;11.57;7.07;;;4.80;99.90;;;;;;5047186;28;20052;-65
2020/12/29 04:57:22;;;;;;;13.48;7.20;;;4.80;99.90;;;;;;5053683;28;20124;-65
2020/12/29 04:59:52;;;;;;;12.48;6.97;;;4.80;99.90;;;;;;5051794;28;20060;-65
2020/12/29 05:02:19;;;;;;;11.98;7.35;;;4.80;99.90;;;;;;5054314;28;20136;-65
2020/12/29 05:04:45;;;;;;;12.65;7.22;;;4.70;99.90;;;;;;5051473;28;20052;-65
2020/12/29 05:07:11;;;;;;;12.23;7.50;;;4.70;99.90;;;;;;5053599;28;20469;-65
2020/12/29 05:09:38;;;;;;;12.02;6.85;;;4.70;99.90;;;;;;5051571;28;20055;-65
2020/12/29 05:12:04;;;;;;;14.32;7.30;;;4.70;99.90;;;;;;5053046;28;20076;-65
2020/12/29 05:14:30;;;;;;;13.27;7.88;;;4.70;99.90;;;;;;5050474;28;20045;-65
2020/12/29 05:17:01;;;;;;;12.65;7.63;;;4.70;99.90;;;;;;5050586;28;20407;-65
2020/12/29 05:19:27;;;;;;;12.30;7.22;;;4.70;99.90;;;;;;5048603;28;20492;-65
2020/12/29 05:21:56;;;;;;;15.20;8.27;;;4.70;99.90;;;;;;5054012;28;20053;-65
2020/12/29 05:24:23;;;;;;;14.38;8.05;;;4.70;99.90;;;;;;5051131;28;20453;-65
2020/12/29 05:26:54;;;;;;;11.93;7.25;;;4.70;99.90;;;;;;5053872;28;20073;-65
2020/12/29 05:29:23;;;;;;;17.27;9.10;;;4.70;99.90;;;;;;5036990;28;20064;-65
2020/12/29 05:31:50;;;;;;;13.95;7.40;;;4.70;99.90;;;;;;5051493;28;20049;-65
2020/12/29 05:34:25;;;;;;;14.10;7.70;;;4.70;99.90;;;;;;5048135;28;20431;-65
2020/12/29 05:36:53;;;;;;;12.02;7.25;;;4.60;99.90;;;;;;5052428;28;20065;-65
2020/12/29 05:39:21;;;;;;;13.13;7.13;;;4.60;99.90;;;;;;5047479;28;20055;-65
2020/12/29 05:41:49;;;;;;;11.70;6.95;;;4.60;99.90;;;;;;5051784;28;20049;-65
2020/12/29 05:44:31;;;;;;;12.90;7.32;;;4.60;99.90;;;;;;5048510;28;20391;-65
2020/12/29 05:47:03;;;;;;;13.05;7.20;;;4.60;99.90;;;;;;5049463;28;20044;-65
2020/12/29 05:49:32;;;;;;;12.68;7.20;;;4.60;99.90;;;;;;5046671;28;20041;-65
2020/12/29 05:51:58;;;;;;;13.93;7.28;;;4.60;99.90;;;;;;5042238;28;20053;-66
2020/12/29 05:54:26;;;;;;;12.30;6.47;;;4.60;99.90;;;;;;5048465;28;20049;-66
2020/12/29 05:56:53;;;;;;;13.73;7.22;;;4.60;99.90;;;;;;5053135;28;20063;-66
2020/12/29 05:59:21;;;;;;;11.30;6.18;;;4.50;99.90;;;;;;5046764;28;20155;-66
2020/12/29 06:01:52;;;;;;;13.88;6.90;;;4.50;99.90;;;;;;5047060;28;20057;-66
2020/12/29 06:04:20;;;;;;;11.90;6.90;;;4.50;99.90;;;;;;5047386;28;20160;-66
2020/12/29 06:06:48;;;;;;;10.07;6.97;;;4.40;99.90;;;;;;5052755;28;20131;-66
2020/12/29 06:09:19;;;;;;;12.25;6.50;;;4.40;99.90;;;;;;5048046;28;20377;-67
2020/12/29 06:11:49;;;;;;;12.77;6.80;;;4.40;99.90;;;;;;5050596;28;20049;-67
2020/12/29 06:14:23;;;;;;;14.35;7.25;;;4.40;99.90;;;;;;5045623;28;20048;-66
2020/12/29 06:16:51;;;;;;;12.93;7.15;;;4.40;99.90;;;;;;5046783;28;20107;-67
2020/12/29 06:19:23;;;;;;;13.32;7.10;;;4.30;99.90;;;;;;5043792;28;20036;-67
2020/12/29 06:22:12;;;;;;;14.82;6.75;;;4.30;99.90;;;;;;5045555;28;20053;-66
2020/12/29 06:24:41;;;;;;;13.60;6.78;;;4.30;99.90;;;;;;5042758;28;20144;-65
2020/12/29 06:27:10;;;;;;;12.88;6.45;;;4.20;99.90;;;;;;5050014;28;20232;-66
2020/12/29 06:29:42;;;;;;;14.02;7.60;;;4.20;99.90;;;;;;5048775;28;20038;-65
2020/12/29 06:32:19;;;;;;;14.60;7.70;;;4.20;99.90;;;;;;5052920;28;20052;-66
2020/12/29 06:34:47;;;;;;;13.93;6.82;;;4.10;99.90;;;;;;5045853;28;20061;-66
2020/12/29 06:37:30;;;;;;;14.13;7.53;;;4.10;99.90;;;;;;5051574;28;20045;-65
2020/12/29 06:40:02;;;;;;;14.30;7.20;;;4.00;99.90;;;;;;5038288;28;20059;-65
2020/12/29 06:42:30;;;;;;;11.77;6.05;;;4.00;99.90;;;;;;5049761;28;20135;-65
2020/12/29 06:44:57;;;;;;;14.48;6.95;;;4.00;99.90;;;;;;5049644;28;20460;-65
2020/12/29 06:47:26;;;;;;;12.60;6.53;;;4.00;99.90;;;;;;5050760;28;20048;-65
2020/12/29 06:49:52;;;;;;;12.82;6.72;;;4.00;99.90;;;;;;5043225;28;20049;-66
2020/12/29 06:52:25;;;;;;;13.98;6.68;;;4.00;99.90;;;;;;5049971;28;20148;-66
2020/12/29 06:54:53;;;;;;;13.27;6.32;;;3.90;99.90;;;;;;5048554;28;20053;-66
2020/12/29 06:57:48;;;;;;;13.40;6.75;;;3.90;99.90;;;;;;5051585;28;20136;-66
2020/12/29 07:00:15;;;;;;;11.98;6.50;;;3.90;99.90;;;;;;5041532;28;20051;-66
2020/12/29 07:02:44;;;;;;;14.43;7.53;;;3.80;99.90;;;;;;5049017;28;20048;-66
2020/12/29 07:05:16;;;;;;;12.20;7.38;;;3.80;99.90;;;;;;5046174;28;20479;-65
2020/12/29 07:07:57;;;;;;;12.70;6.90;;;3.80;99.90;;;;;;5040644;28;20080;-65
2020/12/29 07:10:45;;;;;;;11.93;6.40;;;3.80;99.90;;;;;;5046510;28;20052;-65
2020/12/29 07:13:24;;;;;;;11.50;6.20;;;3.80;99.90;;;;;;5044924;28;20174;-65
2020/12/29 07:15:54;;;;;;;13.40;6.20;;;3.80;99.90;;;;;;5045569;28;20481;-65
2020/12/29 07:18:43;;;;;;;11.10;6.15;;;3.70;99.90;;;;;;5043024;28;20072;-65
2020/12/29 07:21:24;;;;;;;11.43;6.65;;;3.70;99.90;;;;;;5044959;28;20123;-65
2020/12/29 07:23:51;;;;;;;12.88;6.60;;;3.70;99.90;;;;;;5047788;28;20428;-65
2020/12/29 07:26:35;;;;;;;10.00;6.15;;;3.70;99.90;;;;;;5046858;28;20061;-65
2020/12/29 07:29:01;;;;;;;11.77;6.68;;;3.70;99.90;;;;;;5044537;28;20061;-65
2020/12/29 07:31:28;;;;;;;11.68;5.97;;;3.70;99.90;;;;;;5051608;28;20083;-65
2020/12/29 07:33:54;;;;;;;10.80;6.20;;;3.70;99.90;;;;;;5045891;28;20076;-65
2020/12/29 07:36:21;;;;;;;11.80;6.20;;;3.70;99.90;;;;;;5051623;28;20045;-65
2020/12/29 07:38:49;;;;;;;9.45;5.55;;;3.70;99.90;;;;;;5043109;28;20091;-65
2020/12/29 07:41:18;;;;;;;11.20;5.80;;;3.70;99.90;;;;;;5049977;28;20057;-65
2020/12/29 07:43:45;;;;;;;11.77;6.15;;;3.70;99.90;;;;;;5044252;28;20109;-65
2020/12/29 07:46:12;;;;;;;9.65;5.60;;;3.70;99.90;;;;;;5045492;28;20480;-65
2020/12/29 07:48:40;;;;;;;10.18;6.22;;;3.70;99.90;;;;;;5041803;28;20080;-65
2020/12/29 07:51:07;;;;;;;9.82;5.95;;;3.70;99.90;;;;;;5038807;28;20093;-65
2020/12/29 07:53:33;;;;;;;11.13;6.32;;;3.70;99.90;;;;;;5039470;28;20051;-65
2020/12/29 07:56:01;;;;;;;11.35;6.10;;;3.70;99.90;;;;;;5040175;28;20080;-65
2020/12/29 07:58:27;;;;;;;10.43;5.32;;;3.70;99.90;;;;;;5038754;28;20065;-65
2020/12/29 08:00:53;;;;;;;10.48;5.57;;;3.70;99.90;;;;;;5039044;28;20053;-65
2020/12/29 08:03:19;;;;;;;11.70;5.97;;;3.70;99.90;;;;;;5038008;28;20388;-65
2020/12/29 08:05:46;;;;;;;11.50;6.13;;;3.70;99.90;;;;;;5042039;28;20210;-65
2020/12/29 08:08:15;;;;;;;11.07;6.05;;;3.70;99.90;;;;;;5035741;28;20043;-65
2020/12/29 08:10:43;;;;;;;11.27;5.75;;;3.70;99.90;;;;;;5035589;28;20113;-65
2020/12/29 08:13:11;;;;;;;10.73;5.72;;;3.70;99.90;;;;;;5036493;28;20053;-65
2020/12/29 08:15:39;;;;;;;11.63;6.07;;;3.70;99.90;;;;;;5046309;28;20206;-65
2020/12/29 08:18:19;;;;;;;10.63;6.05;;;3.70;99.90;;;;;;5037178;28;20413;-65
2020/12/29 08:20:51;;;;;;;12.52;6.60;;;3.70;99.90;;;;;;5041382;28;20049;-65
2020/12/29 08:23:18;;;;;;;9.30;5.13;;;3.70;99.90;;;;;;5055744;28;20064;-65
2020/12/29 08:25:49;;;;;;;10.15;5.78;;;3.70;99.90;;;;;;5043945;28;20044;-65
2020/12/29 08:28:16;;;;;;;10.38;5.72;;;3.70;99.90;;;;;;5051258;28;20045;-65
2020/12/29 08:30:42;;;;;;;12.07;5.75;;;3.70;99.90;;;;;;5043331;28;20049;-65
2020/12/29 08:33:09;;;;;;;14.30;6.60;;;3.70;99.90;;;;;;5041710;28;20056;-65
2020/12/29 08:35:44;;;;;;;10.85;6.00;;;3.70;99.90;;;;;;5049281;28;20051;-65
2020/12/29 08:38:36;;;;;;;11.85;6.38;;;3.70;99.90;;;;;;5041082;28;20041;-65
2020/12/29 08:41:05;;;;;;;9.27;4.97;;;3.70;99.90;;;;;;5047585;28;20049;-65
2020/12/29 08:43:40;;;;;;;11.13;5.47;;;3.80;99.90;;;;;;5036295;28;20038;-65
2020/12/29 08:46:08;;;;;;;8.90;5.18;;;3.80;99.90;;;;;;5038083;28;20124;-65
2020/12/29 08:48:35;;;;;;;11.35;5.75;;;3.80;99.90;;;;;;5036666;28;20052;-65
2020/12/29 08:51:19;;;;;;;9.27;4.93;;;3.80;99.90;;;;;;5039569;28;20060;-65
2020/12/29 08:53:45;;;;;;;10.65;5.70;;;3.80;99.90;;;;;;5038082;28;20139;-65
2020/12/29 08:56:26;;;;;;;11.27;5.43;;;3.80;99.90;;;;;;5045933;28;20049;-65
2020/12/29 08:58:53;;;;;;;9.73;5.03;;;3.90;99.90;;;;;;5043483;28;20053;-66
2020/12/29 09:01:37;;;;;;;10.82;5.53;;;3.90;99.90;;;;;;5042304;28;20057;-65
2020/12/29 09:04:24;;;;;;;12.02;6.13;;;3.90;99.90;;;;;;5042821;28;20041;-65
2020/12/29 09:07:10;;;;;;;10.75;4.90;;;3.90;99.90;;;;;;5043003;28;20400;-65
2020/12/29 09:09:50;;;;;;;11.15;5.70;;;4.00;99.90;;;;;;5037824;28;20047;-65
2020/12/29 09:12:19;;;;;;;9.10;5.15;;;4.00;99.90;;;;;;5042954;28;20049;-65
2020/12/29 09:14:55;;;;;;;;;;;4.00;99.90;;;;;;5047621;28;20045;-65
2020/12/29 09:17:23;;;;;;;7.43;4.13;;;4.00;99.90;;;;;;5047972;28;19921;-66
2020/12/29 09:20:06;;;;;;;10.67;5.23;;;4.10;99.90;;;;;;5044564;28;20054;-66
2020/12/29 09:22:34;;;;;;;9.70;4.75;;;4.10;99.90;;;;;;5042394;28;20445;-66
2020/12/29 09:25:00;;;;;;;11.10;6.07;;;4.10;99.90;;;;;;5040477;28;20048;-65
2020/12/29 09:27:33;;;;;;;10.10;5.32;;;4.10;99.90;;;;;;5046402;28;20408;-66
2020/12/29 09:30:11;;;;;;;11.00;5.70;;;4.20;99.90;;;;;;5036486;28;20057;-66
2020/12/29 09:32:38;;;;;;;12.25;5.78;;;4.20;99.90;;;;;;5040193;28;20059;-65
2020/12/29 09:35:27;;;;;;;9.07;4.93;;;4.30;99.90;;;;;;5043859;28;20056;-65
2020/12/29 09:37:59;;;;;;;9.43;4.95;;;4.30;99.90;;;;;;5043968;28;20053;-66
2020/12/29 09:40:26;;;;;;;11.07;5.75;;;4.30;99.90;;;;;;5047956;28;20049;-66
2020/12/29 09:42:53;;;;;;;9.52;4.80;;;4.30;99.90;;;;;;5040652;28;20061;-65
2020/12/29 09:45:21;;;;;;;9.73;5.35;;;4.30;99.90;;;;;;5049664;28;20395;-65
2020/12/29 09:47:47;;;;;;;9.60;4.90;;;4.40;99.90;;;;;;5050191;28;20046;-65
2020/12/29 09:50:14;;;;;;;9.95;4.85;;;4.40;99.90;;;;;;5043981;28;20052;-65
2020/12/29 09:52:40;;;;;;;10.75;5.03;;;4.40;99.90;;;;;;5052124;28;20060;-65
2020/12/29 09:55:07;;;;;;;9.75;4.90;;;4.50;99.90;;;;;;5050226;28;20135;-65
2020/12/29 09:57:34;;;;;;;9.10;4.82;;;4.50;99.90;;;;;;5051694;28;20136;-66
2020/12/29 10:00:01;;;;;;;9.55;5.20;;;4.60;99.90;;;;;;5051867;28;20041;-66
2020/12/29 10:02:27;;;;;;;9.75;5.05;;;4.50;99.90;;;;;;5051753;28;20344;-66
2020/12/29 10:04:53;;;;;;;9.30;4.82;;;4.60;99.90;;;;;;5046799;28;20056;-65
2020/12/29 10:07:23;;;;;;;10.18;5.03;;;4.60;99.90;;;;;;5054800;28;20472;-65
2020/12/29 10:09:50;;;;;;;9.85;4.97;;;4.60;99.90;;;;;;5055179;28;20044;-65
2020/12/29 10:12:17;;;;;;;9.20;4.40;;;4.70;99.90;;;;;;5050912;28;20124;-66
2020/12/29 10:14:43;;;;;;;10.93;5.28;;;4.70;99.90;;;;;;5045803;28;20483;-65
2020/12/29 10:17:09;;;;;;;9.68;4.95;;;4.70;99.90;;;;;;5046706;28;20069;-66
2020/12/29 10:19:36;;;;;;;8.75;4.95;;;4.70;99.90;;;;;;5050679;28;20041;-67
2020/12/29 10:22:03;;;;;;;8.93;4.95;;;4.70;99.90;;;;;;5047740;28;20059;-66
2020/12/29 10:24:29;;;;;;;8.20;4.65;;;4.70;99.90;;;;;;5047752;28;20041;-66
2020/12/29 10:26:57;;;;;;;10.68;5.57;;;4.70;99.90;;;;;;5037975;28;20053;-67
2020/12/29 10:29:24;;;;;;;12.50;5.13;;;4.70;99.90;;;;;;5047012;28;20146;-67
2020/12/29 10:31:50;;;;;;;9.13;5.00;;;4.70;99.90;;;;;;5039808;28;20136;-67
2020/12/29 10:34:18;;;;;;;8.85;4.63;;;4.70;99.90;;;;;;5044052;28;20044;-67
2020/12/29 10:36:46;;;;;;;10.07;5.20;;;4.70;99.90;;;;;;5041751;28;20049;-67
2020/12/29 10:39:12;;;;;;;10.70;5.27;;;4.70;99.90;;;;;;5043795;28;20045;-66
2020/12/29 10:41:43;;;;;;;9.77;4.75;;;4.70;99.90;;;;;;5037354;28;20107;-67
2020/12/29 10:44:10;;;;;;;9.73;5.50;;;4.70;99.90;;;;;;5045741;28;20207;-67
2020/12/29 10:46:37;;;;;;;10.25;5.38;;;4.70;99.90;;;;;;5038315;28;20041;-66
2020/12/29 10:49:04;;;;;;;9.27;5.40;;;4.70;99.90;;;;;;5041559;28;20103;-67
2020/12/29 10:51:32;;;;;;;10.73;5.00;;;4.70;99.90;;;;;;5040933;28;20044;-67
2020/12/29 10:53:58;;;;;;;11.15;6.18;;;4.80;99.90;;;;;;5038644;28;20045;-67
2020/12/29 10:56:24;;;;;;;9.35;5.40;;;4.80;99.90;;;;;;5041985;28;20056;-67
2020/12/29 10:58:50;;;;;;;9.18;5.28;;;4.80;99.90;;;;;;5045034;28;20403;-67
2020/12/29 11:01:22;;;;;;;9.52;5.50;;;4.90;99.90;;;;;;5044541;28;20049;-67
2020/12/29 11:03:49;;;;;;;8.90;5.50;;;4.90;99.90;;;;;;5041580;28;20053;-67
2020/12/29 11:06:17;;;;;;;11.73;6.38;;;4.90;99.90;;;;;;5040212;28;20546;-67
2020/12/29 11:08:44;;;;;;;9.90;5.20;;;5.00;99.90;;;;;;5042651;28;20045;-67
2020/12/29 11:11:12;;;;;;;10.35;5.57;;;5.10;99.90;;;;;;5074450;28;20696;-67
2020/12/29 11:13:39;;;;;;;10.27;5.68;;;5.20;99.90;;;;;;5042756;28;20160;-67
2020/12/29 11:16:05;;;;;;;12.32;5.95;;;5.40;99.90;;;;;;5042110;28;20472;-67
2020/12/29 11:18:32;;;;;;;11.55;6.35;;;5.60;99.90;;;;;;5038434;28;20484;-67
2020/12/29 11:20:58;;;;;;;10.50;5.53;;;5.80;99.90;;;;;;5041789;28;20076;-67
2020/12/29 11:23:26;;;;;;;10.23;5.90;;;5.90;99.90;;;;;;5037727;28;20592;-66
2020/12/29 11:25:53;;;;;;;12.85;6.40;;;6.00;99.90;;;;;;5030923;28;20388;-67
2020/12/29 11:28:19;;;;;;;13.45;7.20;;;6.00;99.90;;;;;;5031993;28;20341;-66
2020/12/29 11:30:45;;;;;;;16.38;8.27;;;5.90;99.90;;;;;;5034839;28;20056;-67
2020/12/29 11:33:11;;;;;;;15.82;8.65;;;5.90;99.90;;;;;;5044123;28;20128;-67
2020/12/29 11:35:38;;;;;;;19.35;9.90;;;5.80;99.90;;;;;;5049558;28;20079;-67
2020/12/29 11:38:04;;;;;;;21.73;10.38;;;5.70;99.90;;;;;;5045442;28;20200;-67
2020/12/29 11:40:31;;;;;;;20.30;11.07;;;5.60;99.90;;;;;;5041167;28;20279;-67
2020/12/29 11:42:57;;;;;;;22.95;11.13;;;5.60;99.90;;;;;;5036953;28;20634;-66
2020/12/29 11:45:23;;;;;;;21.83;11.02;;;5.50;99.90;;;;;;5038909;28;20152;-66
2020/12/29 11:47:50;;;;;;;17.52;9.65;;;5.50;99.90;;;;;;5049659;28;20049;-66
2020/12/29 11:50:17;;;;;;;17.02;10.00;;;5.40;99.90;;;;;;5052453;28;20131;-66
2020/12/29 11:52:43;;;;;;;17.65;9.38;;;5.40;99.90;;;;;;5056690;28;20478;-66
2020/12/29 11:55:10;;;;;;;16.90;9.65;;;5.40;99.90;;;;;;5051959;28;20052;-66
2020/12/29 11:57:37;;;;;;;16.65;9.82;;;5.40;99.90;;;;;;5048140;28;20105;-66
2020/12/29 12:00:07;;;;;;;16.70;9.95;;;5.40;99.90;;;;;;5050199;28;20057;-66
2020/12/29 12:02:33;;;;;;;16.95;9.10;;;5.40;99.90;;;;;;5049057;28;20049;-66
2020/12/29 12:05:00;;;;;;;18.77;10.15;;;5.40;99.90;;;;;;5048268;28;21804;-66
2020/12/29 12:07:27;;;;;;;18.00;9.30;;;5.40;99.90;;;;;;5047018;28;20042;-67
2020/12/29 12:09:53;;;;;;;17.15;9.25;;;5.40;99.90;;;;;;5052443;28;20417;-67
2020/12/29 12:12:20;;;;;;;14.88;8.88;;;5.40;99.90;;;;;;5049257;28;20480;-67
2020/12/29 12:14:46;;;;;;;15.45;9.00;;;5.40;99.90;;;;;;5047211;28;20045;-67
2020/12/29 12:17:12;;;;;;;16.70;8.90;;;5.40;99.90;;;;;;5048587;28;20059;-67
2020/12/29 12:19:38;;;;;;;16.98;9.18;;;5.40;99.90;;;;;;5056175;28;20051;-66
2020/12/29 12:22:05;;;;;;;17.58;9.95;;;5.40;99.90;;;;;;5047239;28;20057;-67
2020/12/29 12:24:31;;;;;;;16.60;9.95;;;5.30;99.90;;;;;;5050334;28;20064;-67
2020/12/29 12:26:58;;;;;;;14.57;9.30;;;5.30;99.90;;;;;;5045069;28;20053;-67
2020/12/29 12:29:24;;;;;;;18.23;10.18;;;5.40;99.90;;;;;;5050137;28;20049;-67
2020/12/29 12:31:50;;;;;;;17.42;9.23;;;5.40;99.90;;;;;;5048567;28;20157;-67
2020/12/29 12:34:16;;;;;;;14.77;9.15;;;5.40;99.90;;;;;;5060079;28;20109;-67
2020/12/29 12:36:42;;;;;;;19.15;9.63;;;5.40;99.90;;;;;;5047891;28;20051;-67
2020/12/29 12:39:08;;;;;;;16.52;8.85;;;5.40;99.90;;;;;;5050260;28;20135;-67
2020/12/29 12:41:35;;;;;;;13.90;8.68;;;5.50;99.90;;;;;;5045868;28;20075;-67
2020/12/29 12:44:01;;;;;;;16.92;7.80;;;5.50;99.90;;;;;;5043067;28;20045;-67
2020/12/29 12:46:28;;;;;;;14.02;7.90;;;5.70;99.90;;;;;;5048410;28;20049;-67
2020/12/29 12:48:54;;;;;;;13.55;7.85;;;5.90;99.90;;;;;;5051384;28;20076;-67
2020/12/29 12:51:20;;;;;;;16.00;8.90;;;6.00;99.90;;;;;;5046135;28;20060;-68
2020/12/29 12:53:46;;;;;;;12.75;7.65;;;6.30;99.90;;;;;;5050388;28;20049;-67
2020/12/29 12:56:16;;;;;;;10.98;7.70;;;6.60;99.90;;;;;;5048824;28;20055;-66
2020/12/29 12:58:43;;;;;;;10.55;5.82;;;6.90;99.90;;;;;;5049270;28;20051;-66